sensor_id;sensor_type;location;lat;lon;timestamp;temperature;humidity
6106;DHT22;3083;51.508;7.966;2023-07-31T00:01:41;15.80;99.90
6106;DHT22;3083;51.508;7.966;2023-07-31T00:04:08;15.80;99.90
6106;DHT22;3083;51.508;7.966;2023-07-31T00:06:35;15.80;99.90
6106;DHT22;3083;51.508;7.966;2023-07-31T00:09:02;15.80;99.90
6106;DHT22;3083;51.508;7.966;2023-07-31T00:11:29;15.80;99.90
6106;DHT22;3083;51.508;7.966;2023-07-31T00:13:57;15.80;99.90
6106;DHT22;3083;51.508;7.966;2023-07-31T00:16:24;15.80;99.90
6106;DHT22;3083;51.508;7.966;2023-07-31T00:18:51;15.80;99.90
6106;DHT22;3083;51.508;7.966;2023-07-31T00:21:18;15.80;99.90
6106;DHT22;3083;51.508;7.966;2023-07-31T00:23:45;15.80;99.90
6106;DHT22;3083;51.508;7.966;2023-07-31T00:26:11;15.80;99.90
6106;DHT22;3083;51.508;7.966;2023-07-31T00:28:38;15.80;99.90
6106;DHT22;3083;51.508;7.966;2023-07-31T00:31:06;15.70;99.90
6106;DHT22;3083;51.508;7.966;2023-07-31T00:33:35;15.70;99.90
6106;DHT22;3083;51.508;7.966;2023-07-31T00:36:02;15.80;99.90
6106;DHT22;3083;51.508;7.966;2023-07-31T00:38:29;15.70;99.90
6106;DHT22;3083;51.508;7.966;2023-07-31T00:40:55;15.70;99.90
6106;DHT22;3083;51.508;7.966;2023-07-31T00:43:22;15.70;99.90
6106;DHT22;3083;51.508;7.966;2023-07-31T00:45:49;15.70;99.90
6106;DHT22;3083;51.508;7.966;2023-07-31T00:48:17;15.70;99.90
6106;DHT22;3083;51.508;7.966;2023-07-31T00:50:44;15.70;99.90
6106;DHT22;3083;51.508;7.966;2023-07-31T00:53:11;15.70;99.90
6106;DHT22;3083;51.508;7.966;2023-07-31T00:55:39;15.70;99.90
6106;DHT22;3083;51.508;7.966;2023-07-31T00:58:06;15.70;99.90
6106;DHT22;3083;51.508;7.966;2023-07-31T01:00:33;15.70;99.90
6106;DHT22;3083;51.508;7.966;2023-07-31T01:03:00;15.70;99.90
6106;DHT22;3083;51.508;7.966;2023-07-31T01:05:36;15.70;99.90
6106;DHT22;3083;51.508;7.966;2023-07-31T01:08:10;15.70;99.90
6106;DHT22;3083;51.508;7.966;2023-07-31T01:10:46;15.70;99.90
6106;DHT22;3083;51.508;7.966;2023-07-31T01:13:15;15.70;99.90
6106;DHT22;3083;51.508;7.966;2023-07-31T01:15:43;15.70;99.90
6106;DHT22;3083;51.508;7.966;2023-07-31T01:18:10;15.70;99.90
6106;DHT22;3083;51.508;7.966;2023-07-31T01:20:42;15.60;99.90
6106;DHT22;3083;51.508;7.966;2023-07-31T01:23:26;15.70;99.90
6106;DHT22;3083;51.508;7.966;2023-07-31T01:26:03;15.70;99.90
6106;DHT22;3083;51.508;7.966;2023-07-31T01:28:39;15.70;99.90
6106;DHT22;3083;51.508;7.966;2023-07-31T01:31:07;15.70;99.90
6106;DHT22;3083;51.508;7.966;2023-07-31T01:33:36;15.70;99.90
6106;DHT22;3083;51.508;7.966;2023-07-31T01:36:04;15.70;99.90
6106;DHT22;3083;51.508;7.966;2023-07-31T01:38:31;15.70;99.90
6106;DHT22;3083;51.508;7.966;2023-07-31T01:40:59;15.70;99.90
6106;DHT22;3083;51.508;7.966;2023-07-31T01:43:26;15.70;99.90
6106;DHT22;3083;51.508;7.966;2023-07-31T01:45:53;15.70;99.90
6106;DHT22;3083;51.508;7.966;2023-07-31T01:48:20;15.70;99.90
6106;DHT22;3083;51.508;7.966;2023-07-31T01:50:47;15.70;99.90
6106;DHT22;3083;51.508;7.966;2023-07-31T01:53:14;15.70;99.90
6106;DHT22;3083;51.508;7.966;2023-07-31T01:55:41;15.70;99.90
6106;DHT22;3083;51.508;7.966;2023-07-31T01:58:09;15.70;99.90
6106;DHT22;3083;51.508;7.966;2023-07-31T02:00:36;15.80;99.90
6106;DHT22;3083;51.508;7.966;2023-07-31T02:03:03;15.80;99.90
6106;DHT22;3083;51.508;7.966;2023-07-31T02:05:30;15.80;99.90
6106;DHT22;3083;51.508;7.966;2023-07-31T02:07:56;15.80;99.90
6106;DHT22;3083;51.508;7.966;2023-07-31T02:10:23;15.80;99.90
6106;DHT22;3083;51.508;7.966;2023-07-31T02:12:50;15.80;99.90
6106;DHT22;3083;51.508;7.966;2023-07-31T02:15:18;15.80;99.90
6106;DHT22;3083;51.508;7.966;2023-07-31T02:17:46;15.80;99.90
6106;DHT22;3083;51.508;7.966;2023-07-31T02:20:13;15.80;99.90
6106;DHT22;3083;51.508;7.966;2023-07-31T02:22:40;15.80;99.90
6106;DHT22;3083;51.508;7.966;2023-07-31T02:25:08;15.80;99.90
6106;DHT22;3083;51.508;7.966;2023-07-31T02:27:34;15.80;99.90
6106;DHT22;3083;51.508;7.966;2023-07-31T02:30:01;15.80;99.90
6106;DHT22;3083;51.508;7.966;2023-07-31T02:32:30;15.80;99.90
6106;DHT22;3083;51.508;7.966;2023-07-31T02:34:56;15.80;99.90
6106;DHT22;3083;51.508;7.966;2023-07-31T02:37:23;15.80;99.90
6106;DHT22;3083;51.508;7.966;2023-07-31T02:39:50;15.80;99.90
6106;DHT22;3083;51.508;7.966;2023-07-31T02:42:17;15.80;99.90
6106;DHT22;3083;51.508;7.966;2023-07-31T02:44:44;15.80;99.90
6106;DHT22;3083;51.508;7.966;2023-07-31T02:47:11;15.80;99.90
6106;DHT22;3083;51.508;7.966;2023-07-31T02:49:39;15.80;99.90
6106;DHT22;3083;51.508;7.966;2023-07-31T02:52:06;15.80;99.90
6106;DHT22;3083;51.508;7.966;2023-07-31T02:54:33;15.80;99.90
6106;DHT22;3083;51.508;7.966;2023-07-31T02:57:00;15.80;99.90
6106;DHT22;3083;51.508;7.966;2023-07-31T02:59:28;15.80;99.90
6106;DHT22;3083;51.508;7.966;2023-07-31T03:01:55;15.80;99.90
6106;DHT22;3083;51.508;7.966;2023-07-31T03:04:21;15.80;99.90
6106;DHT22;3083;51.508;7.966;2023-07-31T03:06:50;15.80;99.90
6106;DHT22;3083;51.508;7.966;2023-07-31T03:09:16;15.80;99.90
6106;DHT22;3083;51.508;7.966;2023-07-31T03:11:43;15.80;99.90
6106;DHT22;3083;51.508;7.966;2023-07-31T03:14:10;15.80;99.90
6106;DHT22;3083;51.508;7.966;2023-07-31T03:16:37;15.80;99.90
6106;DHT22;3083;51.508;7.966;2023-07-31T03:19:04;15.80;99.90
6106;DHT22;3083;51.508;7.966;2023-07-31T03:21:31;15.80;99.90
6106;DHT22;3083;51.508;7.966;2023-07-31T03:23:59;15.80;99.90
6106;DHT22;3083;51.508;7.966;2023-07-31T03:26:26;15.80;99.90
6106;DHT22;3083;51.508;7.966;2023-07-31T03:28:52;15.80;99.90
6106;DHT22;3083;51.508;7.966;2023-07-31T03:31:19;15.80;99.90
6106;DHT22;3083;51.508;7.966;2023-07-31T03:33:46;15.80;99.90
6106;DHT22;3083;51.508;7.966;2023-07-31T03:36:14;15.80;99.90
6106;DHT22;3083;51.508;7.966;2023-07-31T03:38:41;15.80;99.90
6106;DHT22;3083;51.508;7.966;2023-07-31T03:41:09;15.80;99.90
6106;DHT22;3083;51.508;7.966;2023-07-31T03:43:36;15.80;99.90
6106;DHT22;3083;51.508;7.966;2023-07-31T03:46:03;15.80;99.90
6106;DHT22;3083;51.508;7.966;2023-07-31T03:48:30;15.80;99.90
6106;DHT22;3083;51.508;7.966;2023-07-31T03:50:56;15.80;99.90
6106;DHT22;3083;51.508;7.966;2023-07-31T03:53:23;15.80;99.90
6106;DHT22;3083;51.508;7.966;2023-07-31T03:55:50;15.80;99.90
6106;DHT22;3083;51.508;7.966;2023-07-31T03:58:19;15.80;99.90
6106;DHT22;3083;51.508;7.966;2023-07-31T04:00:46;15.80;99.90
6106;DHT22;3083;51.508;7.966;2023-07-31T04:03:13;15.80;99.90
6106;DHT22;3083;51.508;7.966;2023-07-31T04:05:40;15.80;99.90
6106;DHT22;3083;51.508;7.966;2023-07-31T04:08:07;15.80;99.90
6106;DHT22;3083;51.508;7.966;2023-07-31T04:10:34;15.80;99.90
6106;DHT22;3083;51.508;7.966;2023-07-31T04:13:00;15.90;99.90
6106;DHT22;3083;51.508;7.966;2023-07-31T04:15:29;15.80;99.90
6106;DHT22;3083;51.508;7.966;2023-07-31T04:17:55;15.90;99.90
6106;DHT22;3083;51.508;7.966;2023-07-31T04:20:22;15.90;99.90
6106;DHT22;3083;51.508;7.966;2023-07-31T04:22:49;15.90;99.90
6106;DHT22;3083;51.508;7.966;2023-07-31T04:25:16;15.90;99.90
6106;DHT22;3083;51.508;7.966;2023-07-31T04:27:43;15.90;99.90
6106;DHT22;3083;51.508;7.966;2023-07-31T04:30:10;15.90;99.90
6106;DHT22;3083;51.508;7.966;2023-07-31T04:32:38;15.90;99.90
6106;DHT22;3083;51.508;7.966;2023-07-31T04:35:05;16.00;99.90
6106;DHT22;3083;51.508;7.966;2023-07-31T04:37:32;16.00;99.90
6106;DHT22;3083;51.508;7.966;2023-07-31T04:39:59;16.00;99.90
6106;DHT22;3083;51.508;7.966;2023-07-31T04:42:26;16.10;99.90
6106;DHT22;3083;51.508;7.966;2023-07-31T04:44:53;16.10;99.90
6106;DHT22;3083;51.508;7.966;2023-07-31T04:47:20;16.10;99.90
6106;DHT22;3083;51.508;7.966;2023-07-31T04:49:48;16.10;99.90
6106;DHT22;3083;51.508;7.966;2023-07-31T04:52:15;16.20;99.90
6106;DHT22;3083;51.508;7.966;2023-07-31T04:54:41;16.20;99.90
6106;DHT22;3083;51.508;7.966;2023-07-31T04:57:08;16.20;99.90
6106;DHT22;3083;51.508;7.966;2023-07-31T04:59:35;16.30;99.90
6106;DHT22;3083;51.508;7.966;2023-07-31T05:02:02;16.30;99.90
6106;DHT22;3083;51.508;7.966;2023-07-31T05:04:29;16.30;99.90
6106;DHT22;3083;51.508;7.966;2023-07-31T05:06:57;16.30;99.90
6106;DHT22;3083;51.508;7.966;2023-07-31T05:09:24;16.40;99.90
6106;DHT22;3083;51.508;7.966;2023-07-31T05:11:51;16.40;99.90
6106;DHT22;3083;51.508;7.966;2023-07-31T05:14:18;16.40;99.90
6106;DHT22;3083;51.508;7.966;2023-07-31T05:16:45;16.40;99.90
6106;DHT22;3083;51.508;7.966;2023-07-31T05:19:12;16.50;99.90
6106;DHT22;3083;51.508;7.966;2023-07-31T05:21:39;16.50;99.90
6106;DHT22;3083;51.508;7.966;2023-07-31T05:24:08;16.50;99.90
6106;DHT22;3083;51.508;7.966;2023-07-31T05:26:34;16.50;99.90
6106;DHT22;3083;51.508;7.966;2023-07-31T05:29:01;16.60;99.90
6106;DHT22;3083;51.508;7.966;2023-07-31T05:31:28;16.60;99.90
6106;DHT22;3083;51.508;7.966;2023-07-31T05:33:55;16.60;99.90
6106;DHT22;3083;51.508;7.966;2023-07-31T05:36:22;16.60;99.90
6106;DHT22;3083;51.508;7.966;2023-07-31T05:38:48;16.60;99.90
6106;DHT22;3083;51.508;7.966;2023-07-31T05:41:17;16.60;99.90
6106;DHT22;3083;51.508;7.966;2023-07-31T05:43:44;16.60;99.90
6106;DHT22;3083;51.508;7.966;2023-07-31T05:46:11;16.60;99.90
6106;DHT22;3083;51.508;7.966;2023-07-31T05:48:38;16.60;99.90
6106;DHT22;3083;51.508;7.966;2023-07-31T05:51:05;16.60;99.90
6106;DHT22;3083;51.508;7.966;2023-07-31T05:53:32;16.60;99.90
6106;DHT22;3083;51.508;7.966;2023-07-31T05:55:59;16.60;99.90
6106;DHT22;3083;51.508;7.966;2023-07-31T05:58:27;16.60;99.90
6106;DHT22;3083;51.508;7.966;2023-07-31T06:00:54;16.70;99.90
6106;DHT22;3083;51.508;7.966;2023-07-31T06:03:21;16.70;99.90
6106;DHT22;3083;51.508;7.966;2023-07-31T06:05:48;16.80;99.90
6106;DHT22;3083;51.508;7.966;2023-07-31T06:08:14;16.90;99.90
6106;DHT22;3083;51.508;7.966;2023-07-31T06:10:41;17.00;99.90
6106;DHT22;3083;51.508;7.966;2023-07-31T06:13:08;17.00;99.90
6106;DHT22;3083;51.508;7.966;2023-07-31T06:15:36;17.00;99.90
6106;DHT22;3083;51.508;7.966;2023-07-31T06:18:03;17.00;99.90
6106;DHT22;3083;51.508;7.966;2023-07-31T06:20:33;17.00;99.90
6106;DHT22;3083;51.508;7.966;2023-07-31T06:23:00;17.00;99.90
6106;DHT22;3083;51.508;7.966;2023-07-31T06:25:27;17.00;99.90
6106;DHT22;3083;51.508;7.966;2023-07-31T06:27:54;17.00;99.90
6106;DHT22;3083;51.508;7.966;2023-07-31T06:30:21;17.10;99.90
6106;DHT22;3083;51.508;7.966;2023-07-31T06:32:49;17.10;99.90
6106;DHT22;3083;51.508;7.966;2023-07-31T06:35:16;17.10;99.90
6106;DHT22;3083;51.508;7.966;2023-07-31T06:37:43;17.10;99.90
6106;DHT22;3083;51.508;7.966;2023-07-31T06:40:11;17.10;99.90
6106;DHT22;3083;51.508;7.966;2023-07-31T06:42:37;17.10;99.90
6106;DHT22;3083;51.508;7.966;2023-07-31T06:45:05;17.10;99.90
6106;DHT22;3083;51.508;7.966;2023-07-31T06:47:33;17.10;99.90
6106;DHT22;3083;51.508;7.966;2023-07-31T06:50:01;17.10;99.90
6106;DHT22;3083;51.508;7.966;2023-07-31T06:52:28;17.10;99.90
6106;DHT22;3083;51.508;7.966;2023-07-31T06:55:01;17.20;99.90
6106;DHT22;3083;51.508;7.966;2023-07-31T06:57:29;17.20;99.90
6106;DHT22;3083;51.508;7.966;2023-07-31T06:59:56;17.20;99.90
6106;DHT22;3083;51.508;7.966;2023-07-31T07:02:23;17.20;99.90
6106;DHT22;3083;51.508;7.966;2023-07-31T07:04:50;17.20;99.90
6106;DHT22;3083;51.508;7.966;2023-07-31T07:07:19;17.20;99.90
6106;DHT22;3083;51.508;7.966;2023-07-31T07:09:46;17.20;99.90
6106;DHT22;3083;51.508;7.966;2023-07-31T07:12:12;17.20;99.90
6106;DHT22;3083;51.508;7.966;2023-07-31T07:14:39;17.20;99.90
6106;DHT22;3083;51.508;7.966;2023-07-31T07:17:06;17.20;99.90
6106;DHT22;3083;51.508;7.966;2023-07-31T07:19:33;17.20;99.90
6106;DHT22;3083;51.508;7.966;2023-07-31T07:21:59;17.20;99.90
6106;DHT22;3083;51.508;7.966;2023-07-31T07:24:28;17.20;99.90
6106;DHT22;3083;51.508;7.966;2023-07-31T07:26:55;17.20;99.90
6106;DHT22;3083;51.508;7.966;2023-07-31T07:29:22;17.30;99.90
6106;DHT22;3083;51.508;7.966;2023-07-31T07:31:49;17.30;99.90
6106;DHT22;3083;51.508;7.966;2023-07-31T07:34:16;17.50;99.90
6106;DHT22;3083;51.508;7.966;2023-07-31T07:36:43;17.50;99.90
6106;DHT22;3083;51.508;7.966;2023-07-31T07:39:10;17.50;99.90
6106;DHT22;3083;51.508;7.966;2023-07-31T07:41:39;17.50;99.90
6106;DHT22;3083;51.508;7.966;2023-07-31T07:44:06;17.60;99.90
6106;DHT22;3083;51.508;7.966;2023-07-31T07:46:32;17.60;99.90
6106;DHT22;3083;51.508;7.966;2023-07-31T07:48:59;17.60;99.90
6106;DHT22;3083;51.508;7.966;2023-07-31T07:51:26;17.60;99.90
6106;DHT22;3083;51.508;7.966;2023-07-31T07:53:55;17.60;99.90
6106;DHT22;3083;51.508;7.966;2023-07-31T07:56:25;17.60;99.90
6106;DHT22;3083;51.508;7.966;2023-07-31T07:58:53;17.60;99.90
6106;DHT22;3083;51.508;7.966;2023-07-31T08:01:20;17.60;99.90
6106;DHT22;3083;51.508;7.966;2023-07-31T08:03:47;17.60;99.90
6106;DHT22;3083;51.508;7.966;2023-07-31T08:06:14;17.60;99.90
6106;DHT22;3083;51.508;7.966;2023-07-31T08:08:41;17.50;99.90
6106;DHT22;3083;51.508;7.966;2023-07-31T08:11:08;17.60;99.90
6106;DHT22;3083;51.508;7.966;2023-07-31T08:13:35;17.60;99.90
6106;DHT22;3083;51.508;7.966;2023-07-31T08:16:03;17.60;99.90
6106;DHT22;3083;51.508;7.966;2023-07-31T08:18:31;17.60;99.90
6106;DHT22;3083;51.508;7.966;2023-07-31T08:20:58;17.60;99.90
6106;DHT22;3083;51.508;7.966;2023-07-31T08:23:25;17.70;99.90
6106;DHT22;3083;51.508;7.966;2023-07-31T08:25:51;17.70;99.90
6106;DHT22;3083;51.508;7.966;2023-07-31T08:28:18;17.70;99.90
6106;DHT22;3083;51.508;7.966;2023-07-31T08:30:45;17.80;99.90
6106;DHT22;3083;51.508;7.966;2023-07-31T08:33:13;17.70;99.90
6106;DHT22;3083;51.508;7.966;2023-07-31T08:35:40;17.70;99.90
6106;DHT22;3083;51.508;7.966;2023-07-31T08:38:07;17.70;99.90
6106;DHT22;3083;51.508;7.966;2023-07-31T08:40:36;17.80;99.90
6106;DHT22;3083;51.508;7.966;2023-07-31T08:43:03;17.90;99.90
6106;DHT22;3083;51.508;7.966;2023-07-31T08:45:31;18.10;99.90
6106;DHT22;3083;51.508;7.966;2023-07-31T08:47:59;18.20;99.90
6106;DHT22;3083;51.508;7.966;2023-07-31T08:50:27;18.20;99.90
6106;DHT22;3083;51.508;7.966;2023-07-31T08:52:54;18.20;99.90
6106;DHT22;3083;51.508;7.966;2023-07-31T08:55:21;18.20;99.90
6106;DHT22;3083;51.508;7.966;2023-07-31T08:57:50;18.10;99.90
6106;DHT22;3083;51.508;7.966;2023-07-31T09:00:18;18.10;99.90
6106;DHT22;3083;51.508;7.966;2023-07-31T09:02:51;18.10;99.90
6106;DHT22;3083;51.508;7.966;2023-07-31T09:05:19;18.10;99.90
6106;DHT22;3083;51.508;7.966;2023-07-31T09:07:48;18.20;99.90
6106;DHT22;3083;51.508;7.966;2023-07-31T09:10:16;18.20;99.90
6106;DHT22;3083;51.508;7.966;2023-07-31T09:12:43;18.20;99.90
6106;DHT22;3083;51.508;7.966;2023-07-31T09:15:11;18.30;99.90
6106;DHT22;3083;51.508;7.966;2023-07-31T09:17:38;18.40;99.90
6106;DHT22;3083;51.508;7.966;2023-07-31T09:20:13;18.40;99.90
6106;DHT22;3083;51.508;7.966;2023-07-31T09:22:40;18.50;99.90
6106;DHT22;3083;51.508;7.966;2023-07-31T09:25:16;18.70;99.90
6106;DHT22;3083;51.508;7.966;2023-07-31T09:27:47;18.90;99.90
6106;DHT22;3083;51.508;7.966;2023-07-31T09:30:14;19.00;99.90
6106;DHT22;3083;51.508;7.966;2023-07-31T09:32:42;19.10;99.90
6106;DHT22;3083;51.508;7.966;2023-07-31T09:35:19;19.30;99.90
6106;DHT22;3083;51.508;7.966;2023-07-31T09:37:51;19.40;99.90
6106;DHT22;3083;51.508;7.966;2023-07-31T09:40:30;19.40;99.90
6106;DHT22;3083;51.508;7.966;2023-07-31T09:42:57;19.20;99.90
6106;DHT22;3083;51.508;7.966;2023-07-31T09:45:25;19.10;99.90
6106;DHT22;3083;51.508;7.966;2023-07-31T09:47:52;19.00;99.90
6106;DHT22;3083;51.508;7.966;2023-07-31T09:50:21;18.90;99.90
6106;DHT22;3083;51.508;7.966;2023-07-31T09:52:48;18.80;99.90
6106;DHT22;3083;51.508;7.966;2023-07-31T09:55:15;18.60;99.90
6106;DHT22;3083;51.508;7.966;2023-07-31T09:57:46;18.40;99.90
6106;DHT22;3083;51.508;7.966;2023-07-31T10:00:15;18.30;99.90
6106;DHT22;3083;51.508;7.966;2023-07-31T10:02:45;18.20;99.90
6106;DHT22;3083;51.508;7.966;2023-07-31T10:05:14;18.00;99.90
6106;DHT22;3083;51.508;7.966;2023-07-31T10:07:43;17.80;99.90
6106;DHT22;3083;51.508;7.966;2023-07-31T10:10:12;17.70;99.90
6106;DHT22;3083;51.508;7.966;2023-07-31T10:12:40;17.70;99.90
6106;DHT22;3083;51.508;7.966;2023-07-31T10:15:09;17.80;99.90
6106;DHT22;3083;51.508;7.966;2023-07-31T10:17:36;17.80;99.90
6106;DHT22;3083;51.508;7.966;2023-07-31T10:20:04;17.80;99.90
6106;DHT22;3083;51.508;7.966;2023-07-31T10:22:34;17.80;99.90
6106;DHT22;3083;51.508;7.966;2023-07-31T10:25:01;17.90;99.90
6106;DHT22;3083;51.508;7.966;2023-07-31T10:27:28;18.00;99.90
6106;DHT22;3083;51.508;7.966;2023-07-31T10:29:56;18.10;99.90
6106;DHT22;3083;51.508;7.966;2023-07-31T10:32:25;18.20;99.90
6106;DHT22;3083;51.508;7.966;2023-07-31T10:34:53;18.40;99.90
6106;DHT22;3083;51.508;7.966;2023-07-31T10:37:22;18.50;99.90
6106;DHT22;3083;51.508;7.966;2023-07-31T10:39:57;18.60;99.90
6106;DHT22;3083;51.508;7.966;2023-07-31T10:42:29;18.80;99.90
6106;DHT22;3083;51.508;7.966;2023-07-31T10:44:58;18.80;99.90
6106;DHT22;3083;51.508;7.966;2023-07-31T10:47:26;18.80;99.90
6106;DHT22;3083;51.508;7.966;2023-07-31T10:50:11;18.80;99.90
6106;DHT22;3083;51.508;7.966;2023-07-31T10:52:38;18.80;99.90
6106;DHT22;3083;51.508;7.966;2023-07-31T10:55:15;18.80;99.90
6106;DHT22;3083;51.508;7.966;2023-07-31T10:57:44;18.70;99.90
6106;DHT22;3083;51.508;7.966;2023-07-31T11:00:22;18.70;99.90
6106;DHT22;3083;51.508;7.966;2023-07-31T11:03:02;18.60;99.90
6106;DHT22;3083;51.508;7.966;2023-07-31T11:05:55;18.50;99.90
6106;DHT22;3083;51.508;7.966;2023-07-31T11:08:29;18.50;99.90
6106;DHT22;3083;51.508;7.966;2023-07-31T11:11:07;18.40;99.90
6106;DHT22;3083;51.508;7.966;2023-07-31T11:13:40;18.40;99.90
6106;DHT22;3083;51.508;7.966;2023-07-31T11:16:07;18.40;99.90
6106;DHT22;3083;51.508;7.966;2023-07-31T11:18:35;18.40;99.90
6106;DHT22;3083;51.508;7.966;2023-07-31T11:21:04;18.40;99.90
6106;DHT22;3083;51.508;7.966;2023-07-31T11:23:30;18.30;99.90
6106;DHT22;3083;51.508;7.966;2023-07-31T11:25:59;18.30;99.90
6106;DHT22;3083;51.508;7.966;2023-07-31T11:28:31;18.40;99.90
6106;DHT22;3083;51.508;7.966;2023-07-31T11:30:58;18.50;99.90
6106;DHT22;3083;51.508;7.966;2023-07-31T11:33:25;18.60;99.90
6106;DHT22;3083;51.508;7.966;2023-07-31T11:35:53;18.60;99.90
6106;DHT22;3083;51.508;7.966;2023-07-31T11:38:26;18.60;99.90
6106;DHT22;3083;51.508;7.966;2023-07-31T11:40:54;18.60;99.90
6106;DHT22;3083;51.508;7.966;2023-07-31T11:43:22;18.60;99.90
6106;DHT22;3083;51.508;7.966;2023-07-31T11:45:50;18.60;99.90
6106;DHT22;3083;51.508;7.966;2023-07-31T11:48:21;18.60;99.90
6106;DHT22;3083;51.508;7.966;2023-07-31T11:50:50;18.60;99.90
6106;DHT22;3083;51.508;7.966;2023-07-31T11:53:21;18.60;99.90
6106;DHT22;3083;51.508;7.966;2023-07-31T11:55:51;18.70;99.90
6106;DHT22;3083;51.508;7.966;2023-07-31T11:58:19;18.70;99.90
6106;DHT22;3083;51.508;7.966;2023-07-31T12:00:46;18.60;99.90
6106;DHT22;3083;51.508;7.966;2023-07-31T12:03:14;18.50;99.90
6106;DHT22;3083;51.508;7.966;2023-07-31T12:05:41;18.40;99.90
6106;DHT22;3083;51.508;7.966;2023-07-31T12:08:11;18.30;99.90
6106;DHT22;3083;51.508;7.966;2023-07-31T12:10:40;18.30;99.90
6106;DHT22;3083;51.508;7.966;2023-07-31T12:13:08;18.20;99.90
6106;DHT22;3083;51.508;7.966;2023-07-31T12:15:40;18.30;99.90
6106;DHT22;3083;51.508;7.966;2023-07-31T12:18:09;18.30;99.90
6106;DHT22;3083;51.508;7.966;2023-07-31T12:20:40;18.30;99.90
6106;DHT22;3083;51.508;7.966;2023-07-31T12:23:13;18.30;99.90
6106;DHT22;3083;51.508;7.966;2023-07-31T12:25:42;18.30;99.90
6106;DHT22;3083;51.508;7.966;2023-07-31T12:28:09;18.40;99.90
6106;DHT22;3083;51.508;7.966;2023-07-31T12:30:38;18.50;99.90
6106;DHT22;3083;51.508;7.966;2023-07-31T12:33:07;18.60;99.90
6106;DHT22;3083;51.508;7.966;2023-07-31T12:35:41;18.60;99.90
6106;DHT22;3083;51.508;7.966;2023-07-31T12:38:08;18.50;99.90
6106;DHT22;3083;51.508;7.966;2023-07-31T12:40:37;18.50;99.90
6106;DHT22;3083;51.508;7.966;2023-07-31T12:43:06;18.50;99.90
6106;DHT22;3083;51.508;7.966;2023-07-31T12:45:34;18.50;99.90
6106;DHT22;3083;51.508;7.966;2023-07-31T12:48:01;18.50;99.90
6106;DHT22;3083;51.508;7.966;2023-07-31T12:50:28;18.50;99.90
6106;DHT22;3083;51.508;7.966;2023-07-31T12:52:57;18.50;99.90
6106;DHT22;3083;51.508;7.966;2023-07-31T12:55:26;18.60;99.90
6106;DHT22;3083;51.508;7.966;2023-07-31T12:57:52;18.70;99.90
6106;DHT22;3083;51.508;7.966;2023-07-31T13:00:21;18.80;99.90
6106;DHT22;3083;51.508;7.966;2023-07-31T13:02:48;18.80;99.90
6106;DHT22;3083;51.508;7.966;2023-07-31T13:05:15;18.90;99.90
6106;DHT22;3083;51.508;7.966;2023-07-31T13:07:42;18.90;99.90
6106;DHT22;3083;51.508;7.966;2023-07-31T13:10:09;19.10;99.90
6106;DHT22;3083;51.508;7.966;2023-07-31T13:12:36;19.10;99.90
6106;DHT22;3083;51.508;7.966;2023-07-31T13:15:03;19.20;99.90
6106;DHT22;3083;51.508;7.966;2023-07-31T13:17:31;19.10;99.90
6106;DHT22;3083;51.508;7.966;2023-07-31T13:19:58;19.10;99.90
6106;DHT22;3083;51.508;7.966;2023-07-31T13:22:26;19.10;99.90
6106;DHT22;3083;51.508;7.966;2023-07-31T13:24:53;19.10;99.90
6106;DHT22;3083;51.508;7.966;2023-07-31T13:27:20;19.10;99.90
6106;DHT22;3083;51.508;7.966;2023-07-31T13:29:47;19.10;99.90
6106;DHT22;3083;51.508;7.966;2023-07-31T13:32:15;19.00;99.90
6106;DHT22;3083;51.508;7.966;2023-07-31T13:34:43;18.90;99.90
6106;DHT22;3083;51.508;7.966;2023-07-31T13:37:10;18.90;99.90
6106;DHT22;3083;51.508;7.966;2023-07-31T13:39:37;18.80;99.90
6106;DHT22;3083;51.508;7.966;2023-07-31T13:42:04;18.80;99.90
6106;DHT22;3083;51.508;7.966;2023-07-31T13:44:32;18.70;99.90
6106;DHT22;3083;51.508;7.966;2023-07-31T13:46:59;18.70;99.90
6106;DHT22;3083;51.508;7.966;2023-07-31T13:49:26;18.70;99.90
6106;DHT22;3083;51.508;7.966;2023-07-31T13:51:55;18.60;99.90
6106;DHT22;3083;51.508;7.966;2023-07-31T13:54:22;18.70;99.90
6106;DHT22;3083;51.508;7.966;2023-07-31T13:56:49;18.70;99.90
6106;DHT22;3083;51.508;7.966;2023-07-31T13:59:16;18.70;99.90
6106;DHT22;3083;51.508;7.966;2023-07-31T14:01:44;18.70;99.90
6106;DHT22;3083;51.508;7.966;2023-07-31T14:04:11;18.70;99.90
6106;DHT22;3083;51.508;7.966;2023-07-31T14:06:38;18.70;99.90
6106;DHT22;3083;51.508;7.966;2023-07-31T14:09:06;18.70;99.90
6106;DHT22;3083;51.508;7.966;2023-07-31T14:11:33;18.70;99.90
6106;DHT22;3083;51.508;7.966;2023-07-31T14:14:00;18.70;99.90
6106;DHT22;3083;51.508;7.966;2023-07-31T14:16:28;18.70;99.90
6106;DHT22;3083;51.508;7.966;2023-07-31T14:18:55;18.60;99.90
6106;DHT22;3083;51.508;7.966;2023-07-31T14:21:24;18.60;99.90
6106;DHT22;3083;51.508;7.966;2023-07-31T14:23:51;18.60;99.90
6106;DHT22;3083;51.508;7.966;2023-07-31T14:26:19;18.60;99.90
6106;DHT22;3083;51.508;7.966;2023-07-31T14:28:46;18.60;99.90
6106;DHT22;3083;51.508;7.966;2023-07-31T14:31:14;18.70;99.90
6106;DHT22;3083;51.508;7.966;2023-07-31T14:33:41;18.70;99.90
6106;DHT22;3083;51.508;7.966;2023-07-31T14:36:08;18.70;99.90
6106;DHT22;3083;51.508;7.966;2023-07-31T14:38:35;18.80;99.90
6106;DHT22;3083;51.508;7.966;2023-07-31T14:41:02;18.90;99.90
6106;DHT22;3083;51.508;7.966;2023-07-31T14:43:30;19.00;99.90
6106;DHT22;3083;51.508;7.966;2023-07-31T14:45:57;19.10;99.90
6106;DHT22;3083;51.508;7.966;2023-07-31T14:48:25;19.30;99.90
6106;DHT22;3083;51.508;7.966;2023-07-31T14:50:52;19.30;99.90
6106;DHT22;3083;51.508;7.966;2023-07-31T14:53:20;19.40;99.90
6106;DHT22;3083;51.508;7.966;2023-07-31T14:55:48;19.50;99.90
6106;DHT22;3083;51.508;7.966;2023-07-31T14:58:14;19.50;99.90
6106;DHT22;3083;51.508;7.966;2023-07-31T15:00:44;19.50;99.90
6106;DHT22;3083;51.508;7.966;2023-07-31T15:03:10;19.60;99.90
6106;DHT22;3083;51.508;7.966;2023-07-31T15:05:37;19.60;99.90
6106;DHT22;3083;51.508;7.966;2023-07-31T15:08:05;19.60;99.90
6106;DHT22;3083;51.508;7.966;2023-07-31T15:10:32;19.60;99.90
6106;DHT22;3083;51.508;7.966;2023-07-31T15:12:59;19.60;99.90
6106;DHT22;3083;51.508;7.966;2023-07-31T15:15:27;19.60;99.90
6106;DHT22;3083;51.508;7.966;2023-07-31T15:17:55;19.70;99.90
6106;DHT22;3083;51.508;7.966;2023-07-31T15:20:22;19.70;99.90
6106;DHT22;3083;51.508;7.966;2023-07-31T15:22:49;19.70;99.90
6106;DHT22;3083;51.508;7.966;2023-07-31T15:25:16;19.70;99.90
6106;DHT22;3083;51.508;7.966;2023-07-31T15:27:43;19.70;99.90
6106;DHT22;3083;51.508;7.966;2023-07-31T15:30:10;19.70;99.90
6106;DHT22;3083;51.508;7.966;2023-07-31T15:32:37;19.60;99.90
6106;DHT22;3083;51.508;7.966;2023-07-31T15:35:06;19.50;99.90
6106;DHT22;3083;51.508;7.966;2023-07-31T15:37:33;19.50;99.90
6106;DHT22;3083;51.508;7.966;2023-07-31T15:40:00;19.40;99.90
6106;DHT22;3083;51.508;7.966;2023-07-31T15:42:27;19.40;99.90
6106;DHT22;3083;51.508;7.966;2023-07-31T15:44:54;19.40;99.90
6106;DHT22;3083;51.508;7.966;2023-07-31T15:47:21;19.40;99.90
6106;DHT22;3083;51.508;7.966;2023-07-31T15:49:47;19.40;99.90
6106;DHT22;3083;51.508;7.966;2023-07-31T15:52:16;19.40;99.90
6106;DHT22;3083;51.508;7.966;2023-07-31T15:54:42;19.40;99.90
6106;DHT22;3083;51.508;7.966;2023-07-31T15:57:09;19.40;99.90
6106;DHT22;3083;51.508;7.966;2023-07-31T15:59:36;19.50;99.90
6106;DHT22;3083;51.508;7.966;2023-07-31T16:02:03;19.50;99.90
6106;DHT22;3083;51.508;7.966;2023-07-31T16:04:30;19.40;99.90
6106;DHT22;3083;51.508;7.966;2023-07-31T16:06:57;19.50;99.90